sensor_id;sensor_type;location;lat;lon;timestamp;pressure;altitude;pressure_sealevel;temperature;humidity
16190;BME280;41754;51.498;7.540;2024-01-11T00:00:41;101825.28;;;-5.28;74.15
16190;BME280;41754;51.498;7.540;2024-01-11T00:03:11;101825.38;;;-5.23;74.70
16190;BME280;41754;51.498;7.540;2024-01-11T00:05:38;101828.75;;;-5.26;75.00
16190;BME280;41754;51.498;7.540;2024-01-11T00:08:06;101822.84;;;-5.22;74.78
16190;BME280;41754;51.498;7.540;2024-01-11T00:10:34;101818.03;;;-5.44;75.42
16190;BME280;41754;51.498;7.540;2024-01-11T00:13:02;101817.34;;;-5.70;76.27
16190;BME280;41754;51.498;7.540;2024-01-11T00:15:30;101809.22;;;-5.87;76.32
16190;BME280;41754;51.498;7.540;2024-01-11T00:17:58;101801.09;;;-5.71;76.59
16190;BME280;41754;51.498;7.540;2024-01-11T00:20:28;101799.38;;;-5.72;76.22
16190;BME280;41754;51.498;7.540;2024-01-11T00:22:56;101793.41;;;-5.71;76.11
16190;BME280;41754;51.498;7.540;2024-01-11T00:25:23;101799.22;;;-5.77;76.10
16190;BME280;41754;51.498;7.540;2024-01-11T00:27:51;101795.59;;;-5.86;77.25
16190;BME280;41754;51.498;7.540;2024-01-11T00:30:19;101786.41;;;-5.78;76.90
16190;BME280;41754;51.498;7.540;2024-01-11T00:32:47;101788.88;;;-5.81;77.05
16190;BME280;41754;51.498;7.540;2024-01-11T00:35:15;101789.09;;;-5.72;76.60
16190;BME280;41754;51.498;7.540;2024-01-11T00:37:45;101791.03;;;-5.63;77.17
16190;BME280;41754;51.498;7.540;2024-01-11T00:40:12;101799.63;;;-5.63;76.60
16190;BME280;41754;51.498;7.540;2024-01-11T00:42:40;101793.72;;;-5.59;77.38
16190;BME280;41754;51.498;7.540;2024-01-11T00:45:08;101802.31;;;-5.56;76.80
16190;BME280;41754;51.498;7.540;2024-01-11T00:47:36;101790.34;;;-5.57;77.42
16190;BME280;41754;51.498;7.540;2024-01-11T00:50:05;101798.84;;;-5.59;77.33
16190;BME280;41754;51.498;7.540;2024-01-11T00:52:33;101801.69;;;-5.81;77.49
16190;BME280;41754;51.498;7.540;2024-01-11T00:55:03;101796.66;;;-5.78;77.61
16190;BME280;41754;51.498;7.540;2024-01-11T00:57:31;101793.25;;;-5.77;77.10
16190;BME280;41754;51.498;7.540;2024-01-11T00:59:59;101800.44;;;-5.96;77.19
16190;BME280;41754;51.498;7.540;2024-01-11T01:02:26;101789.38;;;-5.94;76.78
16190;BME280;41754;51.498;7.540;2024-01-11T01:04:54;101794.59;;;-5.91;76.90
16190;BME280;41754;51.498;7.540;2024-01-11T01:07:22;101789.69;;;-5.82;76.73
16190;BME280;41754;51.498;7.540;2024-01-11T01:09:50;101789.16;;;-6.04;77.19
16190;BME280;41754;51.498;7.540;2024-01-11T01:12:19;101796.38;;;-6.21;78.53
16190;BME280;41754;51.498;7.540;2024-01-11T01:14:47;101802.63;;;-6.11;77.72
16190;BME280;41754;51.498;7.540;2024-01-11T01:17:14;101802.53;;;-6.14;77.17
16190;BME280;41754;51.498;7.540;2024-01-11T01:19:43;101803.78;;;-6.31;78.55
16190;BME280;41754;51.498;7.540;2024-01-11T01:22:11;101802.84;;;-6.34;77.71
16190;BME280;41754;51.498;7.540;2024-01-11T01:24:39;101817.66;;;-6.23;78.32
16190;BME280;41754;51.498;7.540;2024-01-11T01:27:07;101815.13;;;-6.22;78.28
16190;BME280;41754;51.498;7.540;2024-01-11T01:29:36;101815.00;;;-5.96;78.39
16190;BME280;41754;51.498;7.540;2024-01-11T01:32:04;101816.72;;;-5.93;78.51
16190;BME280;41754;51.498;7.540;2024-01-11T01:34:33;101808.22;;;-5.92;78.12
16190;BME280;41754;51.498;7.540;2024-01-11T01:37:01;101817.00;;;-6.16;78.04
16190;BME280;41754;51.498;7.540;2024-01-11T01:39:28;101811.75;;;-6.21;78.84
16190;BME280;41754;51.498;7.540;2024-01-11T01:41:56;101817.28;;;-6.36;78.65
16190;BME280;41754;51.498;7.540;2024-01-11T01:44:24;101811.94;;;-6.45;78.66
16190;BME280;41754;51.498;7.540;2024-01-11T01:46:53;101807.47;;;-6.50;78.00
16190;BME280;41754;51.498;7.540;2024-01-11T01:49:21;101809.72;;;-6.61;78.25
16190;BME280;41754;51.498;7.540;2024-01-11T01:51:51;101808.94;;;-6.59;78.64
16190;BME280;41754;51.498;7.540;2024-01-11T01:54:20;101815.19;;;-6.49;78.56
16190;BME280;41754;51.498;7.540;2024-01-11T01:56:49;101805.84;;;-6.48;78.19
16190;BME280;41754;51.498;7.540;2024-01-11T01:59:17;101813.53;;;-6.47;78.30
16190;BME280;41754;51.498;7.540;2024-01-11T02:01:46;101810.28;;;-6.43;78.21
16190;BME280;41754;51.498;7.540;2024-01-11T02:04:15;101809.66;;;-6.34;78.23
16190;BME280;41754;51.498;7.540;2024-01-11T02:06:44;101817.03;;;-6.45;78.69
16190;BME280;41754;51.498;7.540;2024-01-11T02:09:14;101817.13;;;-6.42;78.16
16190;BME280;41754;51.498;7.540;2024-01-11T02:11:44;101821.31;;;-6.44;79.47
16190;BME280;41754;51.498;7.540;2024-01-11T02:14:12;101820.94;;;-6.27;79.24
16190;BME280;41754;51.498;7.540;2024-01-11T02:16:40;101815.84;;;-6.56;80.32
16190;BME280;41754;51.498;7.540;2024-01-11T02:19:12;101803.50;;;-6.41;79.95
16190;BME280;41754;51.498;7.540;2024-01-11T02:21:42;101816.75;;;-6.54;79.76
16190;BME280;41754;51.498;7.540;2024-01-11T02:24:12;101817.19;;;-6.39;79.60
16190;BME280;41754;51.498;7.540;2024-01-11T02:26:58;101813.75;;;-6.41;79.03
16190;BME280;41754;51.498;7.540;2024-01-11T02:29:27;101816.66;;;-6.57;80.10
16190;BME280;41754;51.498;7.540;2024-01-11T02:31:55;101818.72;;;-6.45;80.98
16190;BME280;41754;51.498;7.540;2024-01-11T02:34:24;101819.59;;;-6.45;80.58
16190;BME280;41754;51.498;7.540;2024-01-11T02:36:52;101827.69;;;-6.60;80.81
16190;BME280;41754;51.498;7.540;2024-01-11T02:39:22;101831.84;;;-6.63;80.98
16190;BME280;41754;51.498;7.540;2024-01-11T02:41:53;101826.03;;;-6.58;80.80
16190;BME280;41754;51.498;7.540;2024-01-11T02:44:21;101816.56;;;-6.62;80.45
16190;BME280;41754;51.498;7.540;2024-01-11T02:46:48;101812.28;;;-6.90;79.71
16190;BME280;41754;51.498;7.540;2024-01-11T02:49:16;101808.41;;;-7.04;79.58
16190;BME280;41754;51.498;7.540;2024-01-11T02:51:44;101808.50;;;-7.01;79.78
16190;BME280;41754;51.498;7.540;2024-01-11T02:54:12;101806.50;;;-7.12;80.29
16190;BME280;41754;51.498;7.540;2024-01-11T02:56:41;101813.72;;;-6.98;80.08
16190;BME280;41754;51.498;7.540;2024-01-11T02:59:09;101815.44;;;-6.97;80.07
16190;BME280;41754;51.498;7.540;2024-01-11T03:01:37;101808.88;;;-6.89;79.60
16190;BME280;41754;51.498;7.540;2024-01-11T03:04:05;101808.19;;;-6.85;79.77
16190;BME280;41754;51.498;7.540;2024-01-11T03:06:33;101813.66;;;-6.73;80.31
16190;BME280;41754;51.498;7.540;2024-01-11T03:09:01;101822.88;;;-6.78;80.06
16190;BME280;41754;51.498;7.540;2024-01-11T03:11:29;101819.22;;;-6.86;80.37
16190;BME280;41754;51.498;7.540;2024-01-11T03:13:58;101816.16;;;-6.74;80.61
16190;BME280;41754;51.498;7.540;2024-01-11T03:16:26;101809.28;;;-6.77;80.50
16190;BME280;41754;51.498;7.540;2024-01-11T03:18:53;101807.06;;;-6.93;80.18
16190;BME280;41754;51.498;7.540;2024-01-11T03:21:21;101816.72;;;-6.84;80.20
16190;BME280;41754;51.498;7.540;2024-01-11T03:23:49;101819.47;;;-6.78;79.50
16190;BME280;41754;51.498;7.540;2024-01-11T03:26:17;101835.41;;;-6.87;80.64
16190;BME280;41754;51.498;7.540;2024-01-11T03:28:45;101839.88;;;-6.80;80.16
16190;BME280;41754;51.498;7.540;2024-01-11T03:31:14;101838.13;;;-6.81;80.38
16190;BME280;41754;51.498;7.540;2024-01-11T03:33:42;101829.94;;;-6.98;81.05
16190;BME280;41754;51.498;7.540;2024-01-11T03:36:10;101838.34;;;-7.02;81.09
16190;BME280;41754;51.498;7.540;2024-01-11T03:38:39;101851.47;;;-6.91;80.42
16190;BME280;41754;51.498;7.540;2024-01-11T03:41:10;101856.56;;;-6.91;80.57
16190;BME280;41754;51.498;7.540;2024-01-11T03:43:38;101848.38;;;-6.81;80.63
16190;BME280;41754;51.498;7.540;2024-01-11T03:46:05;101836.22;;;-6.88;80.48
16190;BME280;41754;51.498;7.540;2024-01-11T03:48:35;101841.38;;;-7.14;80.13
16190;BME280;41754;51.498;7.540;2024-01-11T03:51:03;101835.94;;;-7.23;80.12
16190;BME280;41754;51.498;7.540;2024-01-11T03:53:34;101839.38;;;-7.22;80.50
16190;BME280;41754;51.498;7.540;2024-01-11T03:56:03;101851.69;;;-7.11;80.42
16190;BME280;41754;51.498;7.540;2024-01-11T03:58:30;101860.34;;;-7.07;80.33
16190;BME280;41754;51.498;7.540;2024-01-11T04:00:59;101851.34;;;-6.94;80.60
16190;BME280;41754;51.498;7.540;2024-01-11T04:03:27;101853.75;;;-6.99;80.40
16190;BME280;41754;51.498;7.540;2024-01-11T04:05:57;101848.84;;;-7.20;80.60
16190;BME280;41754;51.498;7.540;2024-01-11T04:08:25;101859.06;;;-7.46;80.78
16190;BME280;41754;51.498;7.540;2024-01-11T04:10:53;101858.34;;;-7.41;81.10
16190;BME280;41754;51.498;7.540;2024-01-11T04:13:20;101852.78;;;-7.55;81.01
16190;BME280;41754;51.498;7.540;2024-01-11T04:15:50;101840.50;;;-7.66;81.02
16190;BME280;41754;51.498;7.540;2024-01-11T04:18:18;101856.31;;;-7.76;80.91
16190;BME280;41754;51.498;7.540;2024-01-11T04:20:46;101859.56;;;-7.56;79.75
16190;BME280;41754;51.498;7.540;2024-01-11T04:23:15;101857.22;;;-7.50;79.85
16190;BME280;41754;51.498;7.540;2024-01-11T04:25:43;101853.00;;;-7.48;79.82
16190;BME280;41754;51.498;7.540;2024-01-11T04:28:11;101843.56;;;-7.50;80.40
16190;BME280;41754;51.498;7.540;2024-01-11T04:30:39;101853.13;;;-7.44;80.56
16190;BME280;41754;51.498;7.540;2024-01-11T04:33:07;101857.03;;;-7.30;80.30
16190;BME280;41754;51.498;7.540;2024-01-11T04:35:35;101855.28;;;-7.31;80.22
16190;BME280;41754;51.498;7.540;2024-01-11T04:38:03;101857.59;;;-7.39;81.22
16190;BME280;41754;51.498;7.540;2024-01-11T04:40:32;101860.38;;;-7.31;80.63
16190;BME280;41754;51.498;7.540;2024-01-11T04:43:00;101859.88;;;-7.21;80.59
16190;BME280;41754;51.498;7.540;2024-01-11T04:45:28;101866.28;;;-7.34;81.44
16190;BME280;41754;51.498;7.540;2024-01-11T04:47:56;101877.03;;;-7.42;81.63
16190;BME280;41754;51.498;7.540;2024-01-11T04:50:24;101870.41;;;-7.37;81.46
16190;BME280;41754;51.498;7.540;2024-01-11T04:52:52;101874.00;;;-7.32;81.54
16190;BME280;41754;51.498;7.540;2024-01-11T04:55:20;101874.91;;;-7.30;82.24
16190;BME280;41754;51.498;7.540;2024-01-11T04:57:49;101885.53;;;-7.43;82.64
16190;BME280;41754;51.498;7.540;2024-01-11T05:00:17;101883.03;;;-7.42;82.53
16190;BME280;41754;51.498;7.540;2024-01-11T05:02:45;101883.22;;;-7.36;82.45
16190;BME280;41754;51.498;7.540;2024-01-11T05:05:13;101884.19;;;-7.34;81.94
16190;BME280;41754;51.498;7.540;2024-01-11T05:07:41;101895.88;;;-7.40;82.22
16190;BME280;41754;51.498;7.540;2024-01-11T05:10:10;101889.53;;;-7.26;82.01
16190;BME280;41754;51.498;7.540;2024-01-11T05:12:38;101908.78;;;-7.12;81.83
16190;BME280;41754;51.498;7.540;2024-01-11T05:15:08;101900.09;;;-7.17;82.22
16190;BME280;41754;51.498;7.540;2024-01-11T05:17:36;101893.94;;;-7.22;82.05
16190;BME280;41754;51.498;7.540;2024-01-11T05:20:05;101901.91;;;-7.13;82.12
16190;BME280;41754;51.498;7.540;2024-01-11T05:22:33;101897.56;;;-7.15;81.97
16190;BME280;41754;51.498;7.540;2024-01-11T05:25:01;101906.50;;;-7.28;81.97
16190;BME280;41754;51.498;7.540;2024-01-11T05:27:29;101902.41;;;-7.23;81.82
16190;BME280;41754;51.498;7.540;2024-01-11T05:29:57;101915.81;;;-7.30;81.93
16190;BME280;41754;51.498;7.540;2024-01-11T05:32:26;101914.50;;;-7.19;81.54
16190;BME280;41754;51.498;7.540;2024-01-11T05:34:54;101914.59;;;-7.16;81.77
16190;BME280;41754;51.498;7.540;2024-01-11T05:37:22;101917.25;;;-7.13;82.01
16190;BME280;41754;51.498;7.540;2024-01-11T05:39:50;101921.56;;;-7.12;82.03
16190;BME280;41754;51.498;7.540;2024-01-11T05:42:18;101920.72;;;-7.11;81.78
16190;BME280;41754;51.498;7.540;2024-01-11T05:44:46;101909.41;;;-7.19;80.72
16190;BME280;41754;51.498;7.540;2024-01-11T05:47:13;101915.38;;;-7.42;80.84
16190;BME280;41754;51.498;7.540;2024-01-11T05:49:43;101915.09;;;-7.26;81.26
16190;BME280;41754;51.498;7.540;2024-01-11T05:52:12;101922.53;;;-7.34;81.31
16190;BME280;41754;51.498;7.540;2024-01-11T05:54:40;101924.69;;;-7.20;80.96
16190;BME280;41754;51.498;7.540;2024-01-11T05:57:08;101912.97;;;-7.14;80.60
16190;BME280;41754;51.498;7.540;2024-01-11T05:59:36;101922.81;;;-7.24;80.14
16190;BME280;41754;51.498;7.540;2024-01-11T06:02:04;101928.59;;;-7.54;80.85
16190;BME280;41754;51.498;7.540;2024-01-11T06:04:32;101912.63;;;-7.73;81.11
16190;BME280;41754;51.498;7.540;2024-01-11T06:07:01;101911.88;;;-7.70;81.36
16190;BME280;41754;51.498;7.540;2024-01-11T06:09:29;101901.28;;;-7.57;80.31
16190;BME280;41754;51.498;7.540;2024-01-11T06:11:56;101901.00;;;-7.65;80.45
16190;BME280;41754;51.498;7.540;2024-01-11T06:14:24;101906.38;;;-7.57;79.99
16190;BME280;41754;51.498;7.540;2024-01-11T06:16:52;101894.13;;;-7.41;80.55
16190;BME280;41754;51.498;7.540;2024-01-11T06:19:20;101891.91;;;-7.32;80.83
16190;BME280;41754;51.498;7.540;2024-01-11T06:21:48;101874.97;;;-7.29;80.08
16190;BME280;41754;51.498;7.540;2024-01-11T06:24:17;101878.78;;;-7.41;79.50
16190;BME280;41754;51.498;7.540;2024-01-11T06:26:45;101885.31;;;-7.50;80.19
16190;BME280;41754;51.498;7.540;2024-01-11T06:29:13;101894.16;;;-7.66;80.92
16190;BME280;41754;51.498;7.540;2024-01-11T06:31:41;101919.16;;;-7.57;81.19
16190;BME280;41754;51.498;7.540;2024-01-11T06:34:09;101931.56;;;-7.43;82.26
16190;BME280;41754;51.498;7.540;2024-01-11T06:36:36;101933.19;;;-7.46;82.72
16190;BME280;41754;51.498;7.540;2024-01-11T06:39:04;101928.06;;;-7.46;82.58
16190;BME280;41754;51.498;7.540;2024-01-11T06:41:34;101925.41;;;-7.49;83.00
16190;BME280;41754;51.498;7.540;2024-01-11T06:44:02;101906.78;;;-7.44;83.35
16190;BME280;41754;51.498;7.540;2024-01-11T06:46:29;101907.19;;;-7.58;82.66
16190;BME280;41754;51.498;7.540;2024-01-11T06:48:57;101908.78;;;-7.86;82.54
16190;BME280;41754;51.498;7.540;2024-01-11T06:51:25;101914.31;;;-7.73;82.79
16190;BME280;41754;51.498;7.540;2024-01-11T06:53:53;101913.28;;;-7.78;82.47
16190;BME280;41754;51.498;7.540;2024-01-11T06:56:21;101911.66;;;-7.52;81.60
16190;BME280;41754;51.498;7.540;2024-01-11T06:58:50;101916.88;;;-7.73;81.75
16190;BME280;41754;51.498;7.540;2024-01-11T07:01:18;101930.28;;;-7.79;81.73
16190;BME280;41754;51.498;7.540;2024-01-11T07:03:46;101934.84;;;-7.70;81.80
16190;BME280;41754;51.498;7.540;2024-01-11T07:06:14;101940.41;;;-7.58;82.82
16190;BME280;41754;51.498;7.540;2024-01-11T07:08:42;101943.66;;;-7.62;82.58
16190;BME280;41754;51.498;7.540;2024-01-11T07:11:10;101947.44;;;-7.52;82.38
16190;BME280;41754;51.498;7.540;2024-01-11T07:13:38;101947.50;;;-7.49;83.15
16190;BME280;41754;51.498;7.540;2024-01-11T07:16:07;101962.53;;;-7.34;82.27
16190;BME280;41754;51.498;7.540;2024-01-11T07:18:38;101948.59;;;-7.42;82.63
16190;BME280;41754;51.498;7.540;2024-01-11T07:21:07;101954.56;;;-7.66;82.32
16190;BME280;41754;51.498;7.540;2024-01-11T07:23:35;101950.25;;;-7.69;82.37
16190;BME280;41754;51.498;7.540;2024-01-11T07:26:03;101946.22;;;-7.62;82.29
16190;BME280;41754;51.498;7.540;2024-01-11T07:28:31;101938.94;;;-7.51;82.10
16190;BME280;41754;51.498;7.540;2024-01-11T07:30:58;101941.66;;;-7.47;81.58
16190;BME280;41754;51.498;7.540;2024-01-11T07:33:28;101941.59;;;-7.48;81.76
16190;BME280;41754;51.498;7.540;2024-01-11T07:35:56;101945.47;;;-7.35;81.57
16190;BME280;41754;51.498;7.540;2024-01-11T07:38:24;101950.47;;;-7.38;82.23
16190;BME280;41754;51.498;7.540;2024-01-11T07:40:52;101940.66;;;-7.26;81.65
16190;BME280;41754;51.498;7.540;2024-01-11T07:43:19;101931.34;;;-7.24;82.10
16190;BME280;41754;51.498;7.540;2024-01-11T07:45:50;101939.63;;;-7.31;81.57
16190;BME280;41754;51.498;7.540;2024-01-11T07:48:18;101927.06;;;-7.25;82.19
16190;BME280;41754;51.498;7.540;2024-01-11T07:50:47;101939.84;;;-7.25;81.77
16190;BME280;41754;51.498;7.540;2024-01-11T07:53:15;101930.66;;;-7.44;81.25
16190;BME280;41754;51.498;7.540;2024-01-11T07:55:43;101929.25;;;-7.60;81.34
16190;BME280;41754;51.498;7.540;2024-01-11T07:58:14;101929.25;;;-7.36;81.17
16190;BME280;41754;51.498;7.540;2024-01-11T08:00:42;101919.28;;;-7.28;80.89
16190;BME280;41754;51.498;7.540;2024-01-11T08:03:10;101921.97;;;-7.25;80.06
16190;BME280;41754;51.498;7.540;2024-01-11T08:05:38;101923.91;;;-7.18;79.98
16190;BME280;41754;51.498;7.540;2024-01-11T08:08:07;101929.63;;;-6.99;80.53
16190;BME280;41754;51.498;7.540;2024-01-11T08:10:35;101931.88;;;-6.83;79.91
16190;BME280;41754;51.498;7.540;2024-01-11T08:13:03;101938.28;;;-6.70;79.74
16190;BME280;41754;51.498;7.540;2024-01-11T08:15:31;101935.94;;;-6.62;80.00
16190;BME280;41754;51.498;7.540;2024-01-11T08:17:59;101951.13;;;-6.68;80.05
16190;BME280;41754;51.498;7.540;2024-01-11T08:20:27;101951.50;;;-6.56;80.23
16190;BME280;41754;51.498;7.540;2024-01-11T08:22:55;101956.50;;;-6.32;79.59
16190;BME280;41754;51.498;7.540;2024-01-11T08:25:24;101947.63;;;-6.16;78.71
16190;BME280;41754;51.498;7.540;2024-01-11T08:27:52;101941.59;;;-6.18;79.17
16190;BME280;41754;51.498;7.540;2024-01-11T08:30:20;101948.59;;;-6.40;79.48
16190;BME280;41754;51.498;7.540;2024-01-11T08:32:48;101959.31;;;-6.24;78.28
16190;BME280;41754;51.498;7.540;2024-01-11T08:35:16;101963.47;;;-6.28;79.91
16190;BME280;41754;51.498;7.540;2024-01-11T08:37:44;101961.22;;;-6.17;78.85
16190;BME280;41754;51.498;7.540;2024-01-11T08:40:12;101982.53;;;-5.89;79.40
16190;BME280;41754;51.498;7.540;2024-01-11T08:42:41;101976.28;;;-5.69;78.17
16190;BME280;41754;51.498;7.540;2024-01-11T08:45:09;101970.81;;;-5.51;78.06
16190;BME280;41754;51.498;7.540;2024-01-11T08:47:44;101974.47;;;-5.73;78.79
16190;BME280;41754;51.498;7.540;2024-01-11T08:50:12;101980.81;;;-5.60;78.67
16190;BME280;41754;51.498;7.540;2024-01-11T08:52:41;101996.50;;;-5.49;79.22
16190;BME280;41754;51.498;7.540;2024-01-11T08:55:09;101993.28;;;-5.10;79.01
16190;BME280;41754;51.498;7.540;2024-01-11T08:57:40;101995.28;;;-5.00;78.41
16190;BME280;41754;51.498;7.540;2024-01-11T09:00:09;101993.13;;;-5.16;78.23
16190;BME280;41754;51.498;7.540;2024-01-11T09:02:37;101999.72;;;-4.94;78.33
16190;BME280;41754;51.498;7.540;2024-01-11T09:05:05;101989.75;;;-4.82;78.05
16190;BME280;41754;51.498;7.540;2024-01-11T09:07:35;101985.03;;;-4.65;77.94
16190;BME280;41754;51.498;7.540;2024-01-11T09:10:04;101983.78;;;-4.46;77.39
16190;BME280;41754;51.498;7.540;2024-01-11T09:12:32;101985.22;;;-4.21;76.14
16190;BME280;41754;51.498;7.540;2024-01-11T09:15:02;101992.91;;;-4.22;76.02
16190;BME280;41754;51.498;7.540;2024-01-11T09:17:30;101992.56;;;-4.36;75.55
16190;BME280;41754;51.498;7.540;2024-01-11T09:19:59;101992.94;;;-4.21;76.03
16190;BME280;41754;51.498;7.540;2024-01-11T09:22:27;102002.47;;;-3.79;74.75
16190;BME280;41754;51.498;7.540;2024-01-11T09:24:55;101994.28;;;-4.00;74.10
16190;BME280;41754;51.498;7.540;2024-01-11T09:27:23;102004.44;;;-4.05;74.90
16190;BME280;41754;51.498;7.540;2024-01-11T09:29:51;102001.47;;;-3.84;74.64
16190;BME280;41754;51.498;7.540;2024-01-11T09:32:24;102001.84;;;-3.65;74.34
16190;BME280;41754;51.498;7.540;2024-01-11T09:34:52;102001.94;;;-3.62;74.18
16190;BME280;41754;51.498;7.540;2024-01-11T09:37:20;102002.13;;;-3.53;73.52
16190;BME280;41754;51.498;7.540;2024-01-11T09:39:48;102000.28;;;-3.60;73.52
16190;BME280;41754;51.498;7.540;2024-01-11T09:42:18;102009.66;;;-3.62;73.09
16190;BME280;41754;51.498;7.540;2024-01-11T09:44:46;102024.13;;;-3.26;73.19
16190;BME280;41754;51.498;7.540;2024-01-11T09:47:15;102023.50;;;-3.13;71.61
16190;BME280;41754;51.498;7.540;2024-01-11T09:49:48;102042.78;;;-2.92;70.11
16190;BME280;41754;51.498;7.540;2024-01-11T09:52:19;102027.53;;;-3.26;70.75
16190;BME280;41754;51.498;7.540;2024-01-11T09:54:47;102024.56;;;-3.03;70.46
16190;BME280;41754;51.498;7.540;2024-01-11T09:57:17;102026.59;;;-2.85;70.31
16190;BME280;41754;51.498;7.540;2024-01-11T09:59:49;102023.22;;;-3.28;70.12
16190;BME280;41754;51.498;7.540;2024-01-11T10:02:18;102020.66;;;-2.81;69.07
16190;BME280;41754;51.498;7.540;2024-01-11T10:04:47;102027.50;;;-2.82;69.45
16190;BME280;41754;51.498;7.540;2024-01-11T10:07:15;102040.81;;;-3.06;68.36
16190;BME280;41754;51.498;7.540;2024-01-11T10:09:45;102044.84;;;-2.73;67.75
16190;BME280;41754;51.498;7.540;2024-01-11T10:12:13;102046.94;;;-2.50;67.23
16190;BME280;41754;51.498;7.540;2024-01-11T10:14:41;102047.59;;;-2.62;68.06
16190;BME280;41754;51.498;7.540;2024-01-11T10:17:09;102040.75;;;-2.08;66.80
16190;BME280;41754;51.498;7.540;2024-01-11T10:19:43;102041.66;;;-2.08;67.92
16190;BME280;41754;51.498;7.540;2024-01-11T10:22:12;102033.94;;;-2.03;67.24
16190;BME280;41754;51.498;7.540;2024-01-11T10:24:43;102025.38;;;-2.02;66.58
16190;BME280;41754;51.498;7.540;2024-01-11T10:27:11;102021.50;;;-2.30;67.74
16190;BME280;41754;51.498;7.540;2024-01-11T10:29:39;102038.13;;;-2.13;66.54
16190;BME280;41754;51.498;7.540;2024-01-11T10:32:06;102039.72;;;-1.60;64.48
16190;BME280;41754;51.498;7.540;2024-01-11T10:34:36;102036.81;;;-1.19;63.91
16190;BME280;41754;51.498;7.540;2024-01-11T10:37:06;102030.00;;;-1.14;63.02
16190;BME280;41754;51.498;7.540;2024-01-11T10:39:38;102014.94;;;0.57;57.25
16190;BME280;41754;51.498;7.540;2024-01-11T10:42:08;102011.63;;;1.09;54.96
16190;BME280;41754;51.498;7.540;2024-01-11T10:44:38;102014.88;;;2.65;50.54
16190;BME280;41754;51.498;7.540;2024-01-11T10:47:13;102019.94;;;2.94;50.94
16190;BME280;41754;51.498;7.540;2024-01-11T10:49:44;102012.81;;;4.93;46.26
16190;BME280;41754;51.498;7.540;2024-01-11T10:52:12;102010.34;;;4.82;45.02
16190;BME280;41754;51.498;7.540;2024-01-11T10:54:45;102013.88;;;2.89;47.22
16190;BME280;41754;51.498;7.540;2024-01-11T10:57:13;102007.31;;;3.63;47.14
16190;BME280;41754;51.498;7.540;2024-01-11T10:59:43;102010.69;;;5.20;43.16
16190;BME280;41754;51.498;7.540;2024-01-11T11:02:12;101999.56;;;5.07;42.19
16190;BME280;41754;51.498;7.540;2024-01-11T11:04:43;101992.25;;;3.97;44.68
16190;BME280;41754;51.498;7.540;2024-01-11T11:07:11;101982.88;;;5.72;40.44
16190;BME280;41754;51.498;7.540;2024-01-11T11:09:41;101985.63;;;3.65;44.17
16190;BME280;41754;51.498;7.540;2024-01-11T11:12:13;101986.03;;;3.10;46.50
16190;BME280;41754;51.498;7.540;2024-01-11T11:14:42;101995.16;;;4.45;43.92
16190;BME280;41754;51.498;7.540;2024-01-11T11:17:11;101999.75;;;3.33;46.15
16190;BME280;41754;51.498;7.540;2024-01-11T11:19:39;102007.00;;;2.85;46.60
16190;BME280;41754;51.498;7.540;2024-01-11T11:22:06;101995.00;;;3.82;45.36
16190;BME280;41754;51.498;7.540;2024-01-11T11:24:34;101990.41;;;3.05;46.23
16190;BME280;41754;51.498;7.540;2024-01-11T11:27:03;101988.16;;;3.70;45.19
16190;BME280;41754;51.498;7.540;2024-01-11T11:29:32;101995.78;;;3.90;45.27
16190;BME280;41754;51.498;7.540;2024-01-11T11:32:02;101997.97;;;3.39;46.24
16190;BME280;41754;51.498;7.540;2024-01-11T11:34:40;101986.06;;;3.07;45.73
16190;BME280;41754;51.498;7.540;2024-01-11T11:37:09;101985.50;;;2.52;48.11
16190;BME280;41754;51.498;7.540;2024-01-11T11:39:37;101979.59;;;2.02;48.58
16190;BME280;41754;51.498;7.540;2024-01-11T11:42:05;101983.56;;;3.98;45.94
16190;BME280;41754;51.498;7.540;2024-01-11T11:44:35;101979.75;;;4.94;42.53
16190;BME280;41754;51.498;7.540;2024-01-11T11:47:19;101982.41;;;3.32;43.82
16190;BME280;41754;51.498;7.540;2024-01-11T11:49:58;101974.16;;;3.82;44.44
16190;BME280;41754;51.498;7.540;2024-01-11T11:52:27;101974.19;;;5.18;40.36
16190;BME280;41754;51.498;7.540;2024-01-11T11:54:56;101982.00;;;5.18;39.15
16190;BME280;41754;51.498;7.540;2024-01-11T11:57:24;101979.69;;;3.48;43.33
16190;BME280;41754;51.498;7.540;2024-01-11T11:59:54;101978.28;;;3.07;43.93
16190;BME280;41754;51.498;7.540;2024-01-11T12:02:22;101984.44;;;2.92;45.21
16190;BME280;41754;51.498;7.540;2024-01-11T12:04:51;101970.19;;;3.44;44.65
16190;BME280;41754;51.498;7.540;2024-01-11T12:07:19;101969.69;;;2.95;45.15
16190;BME280;41754;51.498;7.540;2024-01-11T12:09:47;101967.47;;;2.12;46.39
16190;BME280;41754;51.498;7.540;2024-01-11T12:12:15;101978.78;;;1.83;47.60
16190;BME280;41754;51.498;7.540;2024-01-11T12:14:44;101982.66;;;2.99;46.12
16190;BME280;41754;51.498;7.540;2024-01-11T12:17:14;101988.72;;;2.94;45.87
16190;BME280;41754;51.498;7.540;2024-01-11T12:19:42;101993.09;;;2.91;46.02
16190;BME280;41754;51.498;7.540;2024-01-11T12:22:10;101993.34;;;2.37;46.36
16190;BME280;41754;51.498;7.540;2024-01-11T12:24:38;101984.06;;;3.43;45.05
16190;BME280;41754;51.498;7.540;2024-01-11T12:27:06;101993.53;;;5.04;42.35
16190;BME280;41754;51.498;7.540;2024-01-11T12:29:33;101991.78;;;3.53;43.93
16190;BME280;41754;51.498;7.540;2024-01-11T12:32:18;101991.88;;;3.43;44.20
16190;BME280;41754;51.498;7.540;2024-01-11T12:34:46;101998.09;;;4.18;43.98
16190;BME280;41754;51.498;7.540;2024-01-11T12:37:15;102000.38;;;4.45;43.22
16190;BME280;41754;51.498;7.540;2024-01-11T12:39:43;101995.94;;;3.75;42.54
16190;BME280;41754;51.498;7.540;2024-01-11T12:42:11;102000.16;;;2.66;44.32
16190;BME280;41754;51.498;7.540;2024-01-11T12:44:40;101992.41;;;4.61;43.43
16190;BME280;41754;51.498;7.540;2024-01-11T12:47:09;101997.47;;;6.32;39.02
16190;BME280;41754;51.498;7.540;2024-01-11T12:49:43;101992.72;;;5.00;39.73
16190;BME280;41754;51.498;7.540;2024-01-11T12:52:15;101999.84;;;4.89;40.69
16190;BME280;41754;51.498;7.540;2024-01-11T12:54:44;101995.81;;;6.26;37.94
16190;BME280;41754;51.498;7.540;2024-01-11T12:57:12;101998.03;;;6.87;36.39
16190;BME280;41754;51.498;7.540;2024-01-11T12:59:45;102000.09;;;5.82;38.39